createdAt,value
2023-02-04T00:01:49.751Z,102589.31
2023-02-04T00:03:51.575Z,102597.41
2023-02-04T00:05:53.855Z,102598.50
2023-02-04T00:07:55.589Z,102589.56
2023-02-04T00:09:57.258Z,102604.75
2023-02-04T00:11:58.883Z,102609.38
2023-02-04T00:14:00.550Z,102619.31
2023-02-04T00:16:04.078Z,102628.22
2023-02-04T00:18:05.765Z,102624.81
2023-02-04T00:20:07.834Z,102633.97
2023-02-04T00:22:10.862Z,102642.78
2023-02-04T00:24:12.882Z,102653.56
2023-02-04T00:26:14.802Z,102659.19
2023-02-04T00:28:16.378Z,102661.97
2023-02-04T00:30:17.948Z,102670.91
2023-02-04T00:32:21.136Z,102677.25
2023-02-04T00:34:23.103Z,102689.03
2023-02-04T00:36:24.654Z,102692.69
2023-02-04T00:38:26.229Z,102706.22
2023-02-04T00:40:28.265Z,102702.72
2023-02-04T00:42:30.350Z,102705.50
2023-02-04T00:44:32.330Z,102710.03
2023-02-04T00:46:34.149Z,102716.38
2023-02-04T00:48:37.454Z,102713.81
2023-02-04T00:50:39.007Z,102724.59
2023-02-04T00:52:40.580Z,102739.00
2023-02-04T00:54:42.217Z,102735.44
2023-02-04T00:56:44.272Z,102749.03
2023-02-04T00:58:45.953Z,102750.88
2023-02-04T01:00:47.545Z,102762.69
2023-02-04T01:02:49.246Z,102771.63
2023-02-04T01:04:54.745Z,102761.88
2023-02-04T01:06:56.331Z,102774.47
2023-02-04T01:08:57.906Z,102783.50
2023-02-04T01:10:59.818Z,102781.75
2023-02-04T01:13:01.387Z,102791.66
2023-02-04T01:15:03.163Z,102796.19
2023-02-04T01:17:04.729Z,102794.59
2023-02-04T01:19:06.470Z,102808.16
2023-02-04T01:21:09.685Z,102809.00
2023-02-04T01:23:11.204Z,102821.63
2023-02-04T01:25:12.841Z,102828.81
2023-02-04T01:27:14.391Z,102836.13
2023-02-04T01:29:16.505Z,102844.34
2023-02-04T01:31:18.478Z,102849.72
2023-02-04T01:33:20.129Z,102856.91
2023-02-04T01:35:21.989Z,102857.88
2023-02-04T01:37:25.179Z,102857.03
2023-02-04T01:39:26.741Z,102871.34
2023-02-04T01:41:28.488Z,102873.16
2023-02-04T01:43:31.173Z,102883.06
2023-02-04T01:45:33.162Z,102890.41
2023-02-04T01:47:35.384Z,102886.75
2023-02-04T01:49:36.992Z,102880.59
2023-02-04T01:51:39.238Z,102883.28
2023-02-04T01:53:43.923Z,102888.56
2023-02-04T01:55:45.980Z,102910.97
2023-02-04T01:57:47.807Z,102914.47
2023-02-04T01:59:52.023Z,102910.09
2023-02-04T02:01:54.406Z,102928.78
2023-02-04T02:03:56.277Z,102926.22
2023-02-04T02:05:58.033Z,102935.16
2023-02-04T02:08:03.796Z,102938.91
2023-02-04T02:10:11.166Z,102938.06
2023-02-04T02:12:12.812Z,102940.97
2023-02-04T02:14:14.748Z,102948.94
2023-02-04T02:16:17.360Z,102956.16
2023-02-04T02:18:19.523Z,102964.22
2023-02-04T02:20:23.612Z,102963.34
2023-02-04T02:22:30.109Z,102972.28
2023-02-04T02:24:35.014Z,102976.78
2023-02-04T02:26:36.579Z,102982.19
2023-02-04T02:28:38.799Z,102990.25
2023-02-04T02:30:41.039Z,102992.94
2023-02-04T02:32:43.193Z,103002.75
2023-02-04T02:34:46.364Z,103008.13
2023-02-04T02:36:48.288Z,103017.06
2023-02-04T02:38:49.973Z,103019.63
2023-02-04T02:40:53.638Z,103023.19
2023-02-04T02:42:55.535Z,103027.59
2023-02-04T02:44:58.073Z,103029.34
2023-02-04T02:47:00.435Z,103021.34
2023-02-04T02:49:02.096Z,103024.91
2023-02-04T02:51:04.193Z,103025.00
2023-02-04T02:53:11.746Z,103032.97
2023-02-04T02:55:16.745Z,103040.19
2023-02-04T02:57:22.721Z,103035.88
2023-02-04T02:59:25.709Z,103039.53
2023-02-04T03:01:27.327Z,103050.38
2023-02-04T03:03:33.052Z,103051.38
2023-02-04T03:05:39.495Z,103059.53
2023-02-04T03:07:41.445Z,103065.13
2023-02-04T03:09:43.028Z,103064.38
2023-02-04T03:11:44.774Z,103067.19
2023-02-04T03:13:48.336Z,103066.41
2023-02-04T03:15:50.443Z,103076.41
2023-02-04T03:17:53.101Z,103080.06
2023-02-04T03:19:54.908Z,103078.44
2023-02-04T03:21:57.505Z,103092.00
2023-02-04T03:23:59.236Z,103102.88
2023-02-04T03:26:01.401Z,103103.06
2023-02-04T03:28:03.638Z,103112.97
2023-02-04T03:30:07.860Z,103114.00
2023-02-04T03:32:09.529Z,103122.19
2023-02-04T03:34:12.582Z,103131.31
2023-02-04T03:36:14.714Z,103135.84
2023-02-04T03:38:17.299Z,103125.28
2023-02-04T03:40:20.251Z,103135.28
2023-02-04T03:42:22.063Z,103145.16
2023-02-04T03:44:23.904Z,103143.56
2023-02-04T03:46:28.577Z,103148.28
2023-02-04T03:48:30.512Z,103152.00
2023-02-04T03:50:32.543Z,103152.13
2023-02-04T03:52:34.340Z,103163.09
2023-02-04T03:54:35.885Z,103163.16
2023-02-04T03:56:37.749Z,103170.47
2023-02-04T03:58:39.352Z,103175.06
2023-02-04T04:00:41.078Z,103185.94
2023-02-04T04:02:44.141Z,103181.59
2023-02-04T04:04:45.892Z,103198.72
2023-02-04T04:06:47.441Z,103203.31
2023-02-04T04:08:49.004Z,103208.81
2023-02-04T04:10:50.835Z,103209.75
2023-02-04T04:12:52.387Z,103213.47
2023-02-04T04:14:53.970Z,103217.16
2023-02-04T04:16:55.603Z,103217.34
2023-02-04T04:18:58.568Z,103232.69
2023-02-04T04:21:00.322Z,103230.09
2023-02-04T04:23:01.871Z,103238.16
2023-02-04T04:25:04.193Z,103240.94
2023-02-04T04:27:05.738Z,103242.00
2023-02-04T04:29:07.295Z,103254.56
2023-02-04T04:31:09.198Z,103257.34
2023-02-04T04:33:11.246Z,103263.00
2023-02-04T04:35:14.662Z,103269.34
2023-02-04T04:37:16.235Z,103280.09
2023-02-04T04:39:17.804Z,103284.78
2023-02-04T04:41:19.386Z,103291.97
2023-02-04T04:43:21.159Z,103293.88
2023-02-04T04:45:22.720Z,103302.91
2023-02-04T04:47:24.292Z,103311.13
2023-02-04T04:49:25.852Z,103319.31
2023-02-04T04:51:28.807Z,103321.19
2023-02-04T04:53:30.425Z,103324.88
2023-02-04T04:55:32.006Z,103336.56
2023-02-04T04:57:33.666Z,103340.19
2023-02-04T04:59:35.501Z,103349.19
2023-02-04T05:01:37.023Z,103359.19
2023-02-04T05:03:38.569Z,103353.88
2023-02-04T05:05:40.196Z,103357.72
2023-02-04T05:07:43.212Z,103364.94
2023-02-04T05:09:44.846Z,103376.50
2023-02-04T05:11:46.451Z,103384.66
2023-02-04T05:13:48.285Z,103388.31
2023-02-04T05:15:50.117Z,103391.94
2023-02-04T05:17:51.901Z,103395.78
2023-02-04T05:19:53.485Z,103402.00
2023-02-04T05:21:55.291Z,103400.28
2023-02-04T05:23:58.304Z,103406.69
2023-02-04T05:26:00.158Z,103409.34
2023-02-04T05:28:01.767Z,103412.16
2023-02-04T05:30:03.994Z,103428.25
2023-02-04T05:32:05.672Z,103419.41
2023-02-04T05:34:07.293Z,103424.97
2023-02-04T05:36:09.217Z,103419.59
2023-02-04T05:38:10.951Z,103433.13
2023-02-04T05:40:13.956Z,103432.44
2023-02-04T05:42:15.605Z,103435.97
2023-02-04T05:44:18.636Z,103443.19
2023-02-04T05:46:21.065Z,103443.25
2023-02-04T05:48:22.587Z,103453.13
2023-02-04T05:50:24.276Z,103461.16
2023-02-04T05:52:26.193Z,103468.47
2023-02-04T05:54:27.791Z,103473.81
2023-02-04T05:56:31.444Z,103477.47
2023-02-04T05:58:33.018Z,103488.19
2023-02-04T06:00:34.829Z,103485.50
2023-02-04T06:02:36.705Z,103484.56
2023-02-04T06:04:38.642Z,103488.19
2023-02-04T06:06:40.210Z,103489.06
2023-02-04T06:08:41.926Z,103487.25
2023-02-04T06:10:43.459Z,103489.06
2023-02-04T06:12:46.398Z,103490.88
2023-02-04T06:14:48.017Z,103494.50
2023-02-04T06:16:49.650Z,103494.59
2023-02-04T06:18:51.348Z,103488.25
2023-02-04T06:20:52.893Z,103500.81
2023-02-04T06:22:54.431Z,103507.16
2023-02-04T06:24:56.424Z,103503.59
2023-02-04T06:26:58.405Z,103498.31
2023-02-04T06:29:01.468Z,103502.03
2023-02-04T06:31:03.693Z,103503.84
2023-02-04T06:33:05.776Z,103504.91
2023-02-04T06:35:08.658Z,103506.72
2023-02-04T06:37:10.614Z,103507.75
2023-02-04T06:39:12.359Z,103512.25
2023-02-04T06:41:15.043Z,103516.81
2023-02-04T06:43:16.688Z,103518.81
2023-02-04T06:45:19.685Z,103520.72
2023-02-04T06:47:21.380Z,103519.03
2023-02-04T06:49:23.148Z,103519.16
2023-02-04T06:51:24.881Z,103523.72
2023-02-04T06:53:26.938Z,103530.94
2023-02-04T06:55:29.318Z,103531.00
2023-02-04T06:57:31.130Z,103539.13
2023-02-04T06:59:33.252Z,103526.66
2023-02-04T07:01:36.250Z,103541.03
2023-02-04T07:03:37.829Z,103541.91
2023-02-04T07:05:39.441Z,103541.03
2023-02-04T07:07:41.060Z,103544.75
2023-02-04T07:09:42.689Z,103555.47
2023-02-04T07:11:44.338Z,103564.47
2023-02-04T07:13:46.457Z,103568.97
2023-02-04T07:15:48.574Z,103577.00
2023-02-04T07:17:52.168Z,103575.38
2023-02-04T07:19:54.310Z,103577.25
2023-02-04T07:21:55.963Z,103583.50
2023-02-04T07:23:57.720Z,103586.16
2023-02-04T07:25:59.255Z,103597.78
2023-02-04T07:28:00.953Z,103596.03
2023-02-04T07:30:02.528Z,103602.25
2023-02-04T07:32:04.258Z,103607.56
2023-02-04T07:34:07.392Z,103617.31
2023-02-04T07:36:09.078Z,103614.56
2023-02-04T07:38:11.014Z,103624.38
2023-02-04T07:40:13.532Z,103624.38
2023-02-04T07:42:15.196Z,103628.75
2023-02-04T07:44:16.878Z,103628.69
2023-02-04T07:46:18.763Z,103646.59
2023-02-04T07:48:20.281Z,103648.34
2023-02-04T07:50:23.413Z,103646.53
2023-02-04T07:52:25.600Z,103646.44
2023-02-04T07:54:27.232Z,103659.78
2023-02-04T07:56:28.878Z,103657.16
2023-02-04T07:58:30.699Z,103666.03
2023-02-04T08:00:34.005Z,103670.34
2023-02-04T08:02:36.293Z,103664.13
2023-02-04T08:04:38.189Z,103672.97
2023-02-04T08:06:41.276Z,103667.44
2023-02-04T08:08:42.822Z,103669.19
2023-02-04T08:10:44.471Z,103672.56
2023-02-04T08:12:46.050Z,103676.97
2023-02-04T08:14:48.083Z,103685.66
2023-02-04T08:16:49.942Z,103683.69
2023-02-04T08:18:51.795Z,103688.88
2023-02-04T08:20:53.464Z,103687.78
2023-02-04T08:22:56.607Z,103696.47
2023-02-04T08:24:58.763Z,103698.06
2023-02-04T08:27:00.350Z,103698.81
2023-02-04T08:29:01.898Z,103707.59
2023-02-04T08:31:03.755Z,103711.06
2023-02-04T08:33:05.403Z,103714.47
2023-02-04T08:35:08.459Z,103715.94
2023-02-04T08:37:10.052Z,103713.09
2023-02-04T08:39:13.280Z,103717.34
2023-02-04T08:41:15.072Z,103720.56
2023-02-04T08:43:16.636Z,103725.63
2023-02-04T08:45:18.214Z,103730.91
2023-02-04T08:47:19.877Z,103727.19
2023-02-04T08:49:21.801Z,103729.38
2023-02-04T08:51:23.663Z,103734.53
2023-02-04T08:53:25.219Z,103734.69
2023-02-04T08:55:28.225Z,103738.38
2023-02-04T08:57:29.845Z,103748.06
2023-02-04T08:59:31.611Z,103743.56
2023-02-04T09:01:33.190Z,103749.72
2023-02-04T09:03:34.738Z,103747.91
2023-02-04T09:05:36.384Z,103748.78
2023-02-04T09:07:38.202Z,103749.47
2023-02-04T09:09:41.340Z,103757.97
2023-02-04T09:11:44.515Z,103755.03
2023-02-04T09:13:46.146Z,103763.97
2023-02-04T09:15:47.785Z,103755.91
2023-02-04T09:17:49.380Z,103766.50
2023-02-04T09:19:51.108Z,103764.94
2023-02-04T09:21:53.005Z,103768.91
2023-02-04T09:23:55.052Z,103768.81
2023-02-04T09:25:56.879Z,103764.38
2023-02-04T09:27:59.928Z,103778.72
2023-02-04T09:30:01.468Z,103776.97
2023-02-04T09:32:03.112Z,103783.22
2023-02-04T09:34:04.700Z,103776.97
2023-02-04T09:36:08.611Z,103799.47
2023-02-04T09:38:11.619Z,103788.59
2023-02-04T09:40:17.573Z,103785.91
2023-02-04T09:42:21.148Z,103792.16
2023-02-04T09:44:27.850Z,103790.09
2023-02-04T09:46:30.745Z,103798.06
2023-02-04T09:48:35.076Z,103799.25
2023-02-04T09:50:36.864Z,103801.00
2023-02-04T09:52:38.450Z,103810.09
2023-02-04T09:54:40.253Z,103801.97
2023-02-04T09:56:42.335Z,103809.06
2023-02-04T09:58:44.511Z,103814.31
2023-02-04T10:00:58.108Z,103807.78
2023-02-04T10:03:02.738Z,103807.72
2023-02-04T10:05:04.678Z,103798.38
2023-02-04T10:07:12.161Z,103810.72
2023-02-04T10:09:16.097Z,103803.16
2023-02-04T10:11:19.920Z,103813.97
2023-02-04T10:13:29.705Z,103821.38
2023-02-04T10:15:32.892Z,103819.03
2023-02-04T10:17:35.980Z,103828.63
2023-02-04T10:19:40.209Z,103833.22
2023-02-04T10:21:49.180Z,103820.53
2023-02-04T10:23:54.979Z,103819.59
2023-02-04T10:25:56.609Z,103823.13
2023-02-04T10:28:00.408Z,103828.38
2023-02-04T10:30:02.504Z,103827.31
2023-02-04T10:32:07.212Z,103821.91
2023-02-04T10:34:17.497Z,103827.78
2023-02-04T10:36:20.266Z,103822.03
2023-02-04T10:38:22.405Z,103824.63
2023-02-04T10:40:29.650Z,103817.50
2023-02-04T10:42:32.303Z,103820.28
2023-02-04T10:44:35.643Z,103816.03
2023-02-04T10:46:37.360Z,103809.00
2023-02-04T10:48:42.302Z,103815.16
2023-02-04T10:50:47.114Z,103819.19
2023-02-04T10:52:51.593Z,103826.13
2023-02-04T10:54:53.329Z,103823.50
2023-02-04T10:56:54.939Z,103820.56
2023-02-04T10:58:56.759Z,103827.50
2023-02-04T11:00:58.749Z,103835.22
2023-02-04T11:03:04.949Z,103826.66
2023-02-04T11:05:12.839Z,103837.81
2023-02-04T11:07:15.952Z,103830.31
2023-02-04T11:09:17.798Z,103839.38
2023-02-04T11:11:22.836Z,103839.50
2023-02-04T11:13:26.797Z,103840.72
2023-02-04T11:15:44.762Z,103841.91
2023-02-04T11:17:46.732Z,103847.13
2023-02-04T11:19:48.210Z,103848.88
2023-02-04T11:21:49.766Z,103853.63
2023-02-04T11:24:04.290Z,103848.75
2023-02-04T11:26:12.285Z,103856.75
2023-02-04T11:28:15.555Z,103859.03
2023-02-04T11:30:32.701Z,103858.00
2023-02-04T11:32:35.686Z,103862.31
2023-02-04T11:34:49.824Z,103871.31
2023-02-04T11:36:56.666Z,103874.56
2023-02-04T11:39:13.164Z,103873.38
2023-02-04T11:41:18.209Z,103878.56
2023-02-04T11:43:21.730Z,103876.31
2023-02-04T11:45:26.967Z,103872.97
2023-02-04T11:47:35.832Z,103873.69
2023-02-04T11:49:37.608Z,103879.84
2023-02-04T11:51:39.652Z,103873.53
2023-02-04T11:53:41.648Z,103878.50
2023-02-04T11:55:47.653Z,103882.53
2023-02-04T11:57:52.391Z,103891.19
2023-02-04T11:59:54.656Z,103895.41
2023-02-04T12:02:07.590Z,103890.53
2023-02-04T12:04:22.906Z,103898.25
2023-02-04T12:06:26.439Z,103896.09
2023-02-04T12:08:32.784Z,103894.13
2023-02-04T12:10:35.175Z,103886.75
2023-02-04T12:12:42.951Z,103888.38
2023-02-04T12:14:44.627Z,103892.72
2023-02-04T12:16:49.471Z,103887.09
2023-02-04T12:18:51.484Z,103900.31
2023-02-04T12:20:53.360Z,103910.03
2023-02-04T12:22:54.909Z,103903.53
2023-02-04T12:24:56.498Z,103920.44
2023-02-04T12:26:58.213Z,103918.38
2023-02-04T12:29:01.371Z,103922.72
2023-02-04T12:31:03.926Z,103928.22
2023-02-04T12:33:05.826Z,103931.50
2023-02-04T12:35:07.829Z,103928.22
2023-02-04T12:37:09.648Z,103929.00
2023-02-04T12:39:11.698Z,103929.97
2023-02-04T12:41:15.128Z,103932.34
2023-02-04T12:43:16.637Z,103932.88
2023-02-04T12:45:19.973Z,103939.78
2023-02-04T12:47:21.618Z,103933.00
2023-02-04T12:49:23.225Z,103934.47
2023-02-04T12:51:24.998Z,103932.97
2023-02-04T12:53:26.809Z,103940.13
2023-02-04T12:55:29.466Z,103948.66
2023-02-04T12:57:31.281Z,103948.00
2023-02-04T12:59:32.832Z,103953.50
2023-02-04T13:01:35.885Z,103955.47
2023-02-04T13:03:37.957Z,103947.44
2023-02-04T13:05:39.625Z,103954.69
2023-02-04T13:07:41.525Z,103956.66
2023-02-04T13:09:46.783Z,103958.69
2023-02-04T13:11:48.389Z,103957.69
2023-02-04T13:13:49.973Z,103962.28
2023-02-04T13:15:52.129Z,103955.22
2023-02-04T13:17:55.093Z,103959.75
2023-02-04T13:19:56.734Z,103967.00
2023-02-04T13:22:01.798Z,103973.28
2023-02-04T13:24:03.897Z,103978.69
2023-02-04T13:26:05.737Z,103978.69
2023-02-04T13:28:07.391Z,103982.25
2023-02-04T13:30:11.856Z,103975.09
2023-02-04T13:32:13.962Z,103976.09
2023-02-04T13:34:16.888Z,103980.63
2023-02-04T13:36:18.645Z,103987.88
2023-02-04T13:38:20.171Z,103987.13
2023-02-04T13:40:21.776Z,103988.97
2023-02-04T13:42:24.003Z,103990.00
2023-02-04T13:44:26.037Z,103985.59
2023-02-04T13:46:27.644Z,103983.19
2023-02-04T13:48:29.260Z,103983.50
2023-02-04T13:50:32.559Z,103983.78
2023-02-04T13:52:36.005Z,103990.47
2023-02-04T13:54:37.807Z,103988.88
2023-02-04T13:56:39.542Z,103990.13
2023-02-04T13:58:41.165Z,103988.50
2023-02-04T14:00:42.757Z,103984.25
2023-02-04T14:02:44.805Z,103989.00
2023-02-04T14:04:46.850Z,103992.75
2023-02-04T14:06:50.191Z,103987.66
2023-02-04T14:08:51.989Z,103989.84
2023-02-04T14:10:53.734Z,103986.59
2023-02-04T14:12:55.226Z,103996.94
2023-02-04T14:14:56.867Z,103996.25
2023-02-04T14:16:58.754Z,103993.84
2023-02-04T14:19:00.626Z,103986.69
2023-02-04T14:21:02.542Z,103991.03
2023-02-04T14:23:06.400Z,103993.63
2023-02-04T14:25:08.794Z,103991.22
2023-02-04T14:27:12.103Z,103992.88
2023-02-04T14:29:14.468Z,103990.84
2023-02-04T14:31:16.561Z,103991.03
2023-02-04T14:33:18.212Z,104000.13
2023-02-04T14:35:20.487Z,103999.53
2023-02-04T14:37:22.183Z,103999.72
2023-02-04T14:39:25.617Z,103997.22
2023-02-04T14:41:27.714Z,104000.09
2023-02-04T14:43:29.291Z,104003.88
2023-02-04T14:45:30.794Z,104001.28
2023-02-04T14:47:32.570Z,104003.19
2023-02-04T14:49:34.143Z,103998.94
2023-02-04T14:51:35.735Z,104002.59
2023-02-04T14:53:37.386Z,103999.34
2023-02-04T14:55:40.225Z,104004.81
2023-02-04T14:57:41.841Z,104005.91
2023-02-04T14:59:43.725Z,103996.25
2023-02-04T15:01:45.542Z,104002.78
2023-02-04T15:03:47.444Z,104003.19
2023-02-04T15:05:49.094Z,104009.72
2023-02-04T15:07:50.957Z,104002.97
2023-02-04T15:09:52.813Z,104005.19
2023-02-04T15:11:56.300Z,104000.25
2023-02-04T15:13:57.985Z,104003.41
2023-02-04T15:15:59.596Z,104004.81
2023-02-04T15:18:01.407Z,104011.63
2023-02-04T15:20:03.231Z,104004.97
2023-02-04T15:22:05.373Z,104006.28
2023-02-04T15:24:08.089Z,104007.59
2023-02-04T15:26:09.724Z,104006.22
2023-02-04T15:28:13.375Z,104015.53
2023-02-04T15:30:15.784Z,104012.34
2023-02-04T15:32:17.592Z,104018.94
2023-02-04T15:34:19.183Z,104016.59
2023-02-04T15:36:21.357Z,104020.59
2023-02-04T15:38:23.428Z,104027.09
2023-02-04T15:40:25.234Z,104028.31
2023-02-04T15:42:27.214Z,104023.19
2023-02-04T15:44:30.103Z,104028.84
2023-02-04T15:46:31.979Z,104024.66
2023-02-04T15:48:33.870Z,104022.13
2023-02-04T15:50:35.901Z,104026.06
2023-02-04T15:52:37.836Z,104027.25
2023-02-04T15:54:39.673Z,104021.22
2023-02-04T15:56:42.374Z,104022.38
2023-02-04T15:58:45.237Z,104030.88
2023-02-04T16:00:48.377Z,104026.66
2023-02-04T16:02:50.016Z,104037.78
2023-02-04T16:04:51.988Z,104035.50
2023-02-04T16:06:58.892Z,104043.81
2023-02-04T16:09:00.735Z,104048.66
2023-02-04T16:11:02.571Z,104048.09
2023-02-04T16:13:06.442Z,104045.72
2023-02-04T16:15:08.756Z,104050.56
2023-02-04T16:17:11.905Z,104049.13
2023-02-04T16:19:13.450Z,104063.75
2023-02-04T16:21:15.114Z,104074.84
2023-02-04T16:23:17.103Z,104075.06
2023-02-04T16:25:18.950Z,104069.06
2023-02-04T16:27:20.705Z,104069.34
2023-02-04T16:29:22.291Z,104068.63
2023-02-04T16:31:24.272Z,104075.97
2023-02-04T16:33:27.488Z,104077.16
2023-02-04T16:35:29.280Z,104078.31
2023-02-04T16:37:31.529Z,104086.59
2023-02-04T16:39:33.391Z,104087.72
2023-02-04T16:41:36.087Z,104083.56
2023-02-04T16:43:37.939Z,104084.75
2023-02-04T16:45:39.868Z,104092.16
2023-02-04T16:47:41.954Z,104081.66
2023-02-04T16:49:44.864Z,104083.66
2023-02-04T16:51:46.421Z,104092.81
2023-02-04T16:53:48.043Z,104092.16
2023-02-04T16:55:49.968Z,104093.31
2023-02-04T16:57:51.682Z,104099.84
2023-02-04T16:59:53.607Z,104097.38
2023-02-04T17:01:55.778Z,104098.47
2023-02-04T17:03:57.594Z,104105.78
2023-02-04T17:06:00.948Z,104098.72
2023-02-04T17:08:02.489Z,104101.66
2023-02-04T17:10:04.941Z,104107.06
2023-02-04T17:12:07.337Z,104105.56
2023-02-04T17:14:11.104Z,104104.75
2023-02-04T17:16:13.105Z,104104.88
2023-02-04T17:18:16.359Z,104105.03
2023-02-04T17:20:18.265Z,104109.66
2023-02-04T17:22:21.534Z,104108.84
2023-02-04T17:24:23.353Z,104114.34
2023-02-04T17:26:24.896Z,104118.09
2023-02-04T17:28:26.549Z,104117.22
2023-02-04T17:30:28.446Z,104121.94
2023-02-04T17:32:30.133Z,104120.25
2023-02-04T17:34:32.174Z,104123.16
2023-02-04T17:36:34.405Z,104135.75
2023-02-04T17:38:37.889Z,104130.56
2023-02-04T17:40:40.840Z,104132.50
2023-02-04T17:42:42.626Z,104135.41
2023-02-04T17:44:45.791Z,104127.56
2023-02-04T17:46:47.664Z,104121.47
2023-02-04T17:48:49.602Z,104122.53
2023-02-04T17:50:51.273Z,104124.47
2023-02-04T17:52:52.833Z,104118.41
2023-02-04T17:54:56.081Z,104133.75
2023-02-04T17:56:57.839Z,104137.50
2023-02-04T17:58:59.338Z,104137.63
2023-02-04T18:01:01.284Z,104148.50
2023-02-04T18:03:04.179Z,104150.34
2023-02-04T18:05:14.670Z,104154.03
2023-02-04T18:07:16.573Z,104156.00
2023-02-04T18:09:18.706Z,104153.47
2023-02-04T18:11:27.264Z,104150.03
2023-02-04T18:13:31.660Z,104154.66
2023-02-04T18:15:33.879Z,104147.63
2023-02-04T18:17:36.029Z,104141.44
2023-02-04T18:19:38.388Z,104151.41
2023-02-04T18:21:40.517Z,104150.59
2023-02-04T18:23:42.934Z,104146.25
2023-02-04T18:25:46.237Z,104151.66
2023-02-04T18:27:49.442Z,104155.34
2023-02-04T18:29:53.296Z,104155.44
2023-02-04T18:31:57.654Z,104146.66
2023-02-04T18:33:59.435Z,104154.81
2023-02-04T18:36:02.318Z,104154.88
2023-02-04T18:38:20.034Z,104153.13
2023-02-04T18:40:28.005Z,104155.06
2023-02-04T18:42:29.586Z,104166.78
2023-02-04T18:44:36.577Z,104156.22
2023-02-04T18:46:44.152Z,104161.63
2023-02-04T18:48:57.183Z,104150.13
2023-02-04T18:50:59.269Z,104146.63
2023-02-04T18:53:18.548Z,104152.03
2023-02-04T18:55:25.801Z,104146.69
2023-02-04T18:57:37.059Z,104148.53
2023-02-04T18:59:40.524Z,104145.94
2023-02-04T19:01:42.638Z,104150.47
2023-02-04T19:03:50.019Z,104146.97
2023-02-04T19:05:53.608Z,104151.50
2023-02-04T19:08:29.311Z,104154.25
2023-02-04T19:10:34.051Z,104148.19
2023-02-04T19:12:35.919Z,104149.19
2023-02-04T19:14:40.607Z,104148.44
2023-02-04T19:16:42.604Z,104152.94
2023-02-04T19:18:45.549Z,104147.81
2023-02-04T19:20:47.060Z,104151.41
2023-02-04T19:22:53.142Z,104150.56
2023-02-04T19:24:59.135Z,104156.91
2023-02-04T19:27:02.176Z,104156.13
2023-02-04T19:29:37.408Z,104152.56
2023-02-04T19:31:42.136Z,104147.31
2023-02-04T19:33:45.146Z,104152.75
2023-02-04T19:35:48.487Z,104149.31
2023-02-04T19:37:54.591Z,104152.94
2023-02-04T19:39:56.251Z,104161.03
2023-02-04T19:41:57.926Z,104161.06
2023-02-04T19:44:41.108Z,104162.91
2023-02-04T19:46:44.230Z,104164.78
2023-02-04T19:48:45.786Z,104163.09
2023-02-04T19:50:47.440Z,104162.28
2023-02-04T19:52:50.886Z,104165.09
2023-02-04T19:54:52.428Z,104169.59
2023-02-04T19:56:55.069Z,104175.94
2023-02-04T19:58:56.870Z,104173.31
2023-02-04T20:01:00.657Z,104169.88
2023-02-04T20:03:12.308Z,104167.25
2023-02-04T20:05:19.434Z,104166.47
2023-02-04T20:07:23.483Z,104169.22
2023-02-04T20:09:24.981Z,104166.66
2023-02-04T20:11:39.550Z,104164.84
2023-02-04T20:13:41.533Z,104165.81
2023-02-04T20:15:43.360Z,104168.56
2023-02-04T20:17:45.922Z,104172.16
2023-02-04T20:19:49.636Z,104165.91
2023-02-04T20:22:00.645Z,104166.81
2023-02-04T20:24:13.023Z,104164.16
2023-02-04T20:26:15.123Z,104161.56
2023-02-04T20:28:39.381Z,104157.09
2023-02-04T20:30:42.874Z,104150.91
2023-02-04T20:32:46.915Z,104159.84
2023-02-04T20:34:49.949Z,104158.13
2023-02-04T20:36:52.150Z,104162.59
2023-02-04T20:39:02.353Z,104168.81
2023-02-04T20:41:15.965Z,104167.03
2023-02-04T20:43:20.457Z,104167.06
2023-02-04T20:45:28.729Z,104165.31
2023-02-04T20:47:34.756Z,104169.78
2023-02-04T20:49:41.159Z,104162.69
2023-02-04T20:51:44.341Z,104176.09
2023-02-04T20:53:48.965Z,104182.38
2023-02-04T20:55:54.751Z,104184.19
2023-02-04T20:58:12.863Z,104187.78
2023-02-04T21:00:26.069Z,104185.22
2023-02-04T21:02:29.460Z,104194.16
2023-02-04T21:04:36.337Z,104200.50
2023-02-04T21:06:38.360Z,104204.09
2023-02-04T21:08:44.614Z,104205.91
2023-02-04T21:10:46.306Z,104199.75
2023-02-04T21:12:47.886Z,104193.56
2023-02-04T21:14:49.427Z,104200.75
2023-02-04T21:16:51.394Z,104200.78
2023-02-04T21:18:53.037Z,104204.38
2023-02-04T21:20:54.633Z,104199.97
2023-02-04T21:22:56.530Z,104193.75
2023-02-04T21:24:59.684Z,104193.75
2023-02-04T21:27:01.794Z,104185.75
2023-02-04T21:29:04.238Z,104192.00
2023-02-04T21:31:06.284Z,104188.44
2023-02-04T21:33:07.973Z,104190.22
2023-02-04T21:35:09.725Z,104196.56
2023-02-04T21:37:11.317Z,104202.78
2023-02-04T21:39:13.272Z,104209.03
2023-02-04T21:41:16.724Z,104205.50
2023-02-04T21:43:18.512Z,104201.06
2023-02-04T21:45:22.731Z,104203.75
2023-02-04T21:47:24.549Z,104203.75
2023-02-04T21:49:26.536Z,104195.78
2023-02-04T21:51:28.132Z,104200.25
2023-02-04T21:53:29.656Z,104194.09
2023-02-04T21:55:31.620Z,104187.81
2023-02-04T21:57:34.833Z,104179.88
2023-02-04T21:59:38.404Z,104173.63
2023-02-04T22:01:40.101Z,104168.28
2023-02-04T22:03:41.936Z,104180.78
2023-02-04T22:05:44.512Z,104175.47
2023-02-04T22:07:49.340Z,104181.69
2023-02-04T22:09:51.089Z,104179.97
2023-02-04T22:11:52.628Z,104178.22
2023-02-04T22:13:56.154Z,104170.19
2023-02-04T22:15:58.333Z,104168.41
2023-02-04T22:17:59.953Z,104159.50
2023-02-04T22:20:01.610Z,104166.66
2023-02-04T22:22:03.773Z,104163.97
2023-02-04T22:24:05.792Z,104160.38
2023-02-04T22:26:07.532Z,104157.72
2023-02-04T22:28:10.693Z,104157.72
2023-02-04T22:30:18.744Z,104156.84
2023-02-04T22:32:20.910Z,104165.72
2023-02-04T22:34:23.010Z,104160.38
2023-02-04T22:36:25.155Z,104155.91
2023-02-04T22:38:26.763Z,104159.44
2023-02-04T22:40:28.535Z,104153.28
2023-02-04T22:42:30.228Z,104161.25
2023-02-04T22:44:32.597Z,104153.28
2023-02-04T22:46:35.715Z,104143.47
2023-02-04T22:48:37.706Z,104140.81
2023-02-04T22:50:39.353Z,104146.06
2023-02-04T22:52:42.991Z,104136.34
2023-02-04T22:54:45.618Z,104139.00
2023-02-04T22:56:47.198Z,104141.63
2023-02-04T22:58:48.904Z,104137.22
2023-02-04T23:00:50.764Z,104137.16
2023-02-04T23:02:53.749Z,104142.47
2023-02-04T23:04:55.390Z,104138.00
2023-02-04T23:06:57.278Z,104145.94
2023-02-04T23:08:59.277Z,104142.34
2023-02-04T23:11:01.117Z,104145.81
2023-02-04T23:13:02.737Z,104139.59
2023-02-04T23:15:05.558Z,104138.69
2023-02-04T23:17:07.383Z,104145.78
2023-02-04T23:19:10.979Z,104146.66
2023-02-04T23:21:13.215Z,104161.78
2023-02-04T23:23:15.983Z,104156.44
2023-02-04T23:25:17.893Z,104165.31